sensor_id;sensor_type;location;lat;lon;timestamp;pressure;altitude;pressure_sealevel;temperature;humidity
42335;BME280;27986;42.700;24.178;2022-12-20T00:00:22;95623.34;;;0.96;75.45
42335;BME280;27986;42.700;24.178;2022-12-20T00:02:47;95647.09;;;1.24;74.51
42335;BME280;27986;42.700;24.178;2022-12-20T00:05:13;95664.31;;;1.38;74.29
42335;BME280;27986;42.700;24.178;2022-12-20T00:07:38;95662.97;;;1.47;73.62
42335;BME280;27986;42.700;24.178;2022-12-20T00:10:04;95655.66;;;1.33;74.79
42335;BME280;27986;42.700;24.178;2022-12-20T00:12:30;95649.50;;;1.22;76.16
42335;BME280;27986;42.700;24.178;2022-12-20T00:14:55;95655.19;;;1.38;75.90
42335;BME280;27986;42.700;24.178;2022-12-20T00:17:21;95662.66;;;1.41;75.25
42335;BME280;27986;42.700;24.178;2022-12-20T00:19:46;95671.19;;;1.54;75.12
42335;BME280;27986;42.700;24.178;2022-12-20T00:22:12;95664.47;;;1.51;74.03
42335;BME280;27986;42.700;24.178;2022-12-20T00:24:37;95643.59;;;1.20;74.26
42335;BME280;27986;42.700;24.178;2022-12-20T00:27:03;95652.44;;;1.34;75.11
42335;BME280;27986;42.700;24.178;2022-12-20T00:29:28;95650.03;;;1.36;75.49
42335;BME280;27986;42.700;24.178;2022-12-20T00:31:53;95645.47;;;1.26;75.71
42335;BME280;27986;42.700;24.178;2022-12-20T00:34:19;95650.09;;;1.33;75.90
42335;BME280;27986;42.700;24.178;2022-12-20T00:36:45;95660.16;;;1.27;76.53
42335;BME280;27986;42.700;24.178;2022-12-20T00:39:10;95646.78;;;0.95;77.29
42335;BME280;27986;42.700;24.178;2022-12-20T00:41:36;95659.59;;;1.12;78.16
42335;BME280;27986;42.700;24.178;2022-12-20T00:44:03;95673.19;;;0.79;78.85
42335;BME280;27986;42.700;24.178;2022-12-20T00:46:29;95646.31;;;0.73;79.01
42335;BME280;27986;42.700;24.178;2022-12-20T00:48:56;95669.81;;;0.92;78.47
42335;BME280;27986;42.700;24.178;2022-12-20T00:51:24;95639.03;;;0.82;77.94
42335;BME280;27986;42.700;24.178;2022-12-20T00:53:50;95668.28;;;1.37;76.96
42335;BME280;27986;42.700;24.178;2022-12-20T00:56:15;95644.59;;;1.06;75.67
42335;BME280;27986;42.700;24.178;2022-12-20T00:58:42;95669.25;;;1.27;76.24
42335;BME280;27986;42.700;24.178;2022-12-20T01:01:23;95648.47;;;1.35;75.10
42335;BME280;27986;42.700;24.178;2022-12-20T01:03:49;95658.41;;;1.56;74.55
42335;BME280;27986;42.700;24.178;2022-12-20T01:06:15;95642.63;;;1.73;73.77
42335;BME280;27986;42.700;24.178;2022-12-20T01:08:42;95651.56;;;2.04;71.78
42335;BME280;27986;42.700;24.178;2022-12-20T01:11:10;95653.97;;;2.22;71.11
42335;BME280;27986;42.700;24.178;2022-12-20T01:13:38;95644.88;;;2.18;70.05
42335;BME280;27986;42.700;24.178;2022-12-20T01:16:20;95647.56;;;2.05;70.20
42335;BME280;27986;42.700;24.178;2022-12-20T01:18:46;95645.84;;;1.91;70.61
42335;BME280;27986;42.700;24.178;2022-12-20T01:21:14;95637.50;;;1.28;71.88
42335;BME280;27986;42.700;24.178;2022-12-20T01:23:40;95618.47;;;1.27;71.98
42335;BME280;27986;42.700;24.178;2022-12-20T01:26:07;95654.09;;;1.75;70.93
42335;BME280;27986;42.700;24.178;2022-12-20T01:28:37;95640.09;;;1.59;71.13
42335;BME280;27986;42.700;24.178;2022-12-20T01:31:06;95625.13;;;1.53;71.02
42335;BME280;27986;42.700;24.178;2022-12-20T01:33:33;95641.19;;;1.65;71.20
42335;BME280;27986;42.700;24.178;2022-12-20T01:36:02;95603.06;;;1.42;70.58
42335;BME280;27986;42.700;24.178;2022-12-20T01:38:27;95627.94;;;1.73;70.11
42335;BME280;27986;42.700;24.178;2022-12-20T01:40:54;95634.13;;;1.60;68.69
42335;BME280;27986;42.700;24.178;2022-12-20T01:43:22;95629.13;;;1.52;68.48
42335;BME280;27986;42.700;24.178;2022-12-20T01:45:47;95622.44;;;1.69;66.59
42335;BME280;27986;42.700;24.178;2022-12-20T01:48:20;95607.38;;;1.47;66.51
42335;BME280;27986;42.700;24.178;2022-12-20T01:50:47;95627.22;;;1.68;66.27
42335;BME280;27986;42.700;24.178;2022-12-20T01:53:15;95600.72;;;1.40;65.38
42335;BME280;27986;42.700;24.178;2022-12-20T01:55:42;95623.19;;;1.50;66.05
42335;BME280;27986;42.700;24.178;2022-12-20T01:58:11;95594.34;;;1.44;65.63
42335;BME280;27986;42.700;24.178;2022-12-20T02:00:37;95618.22;;;1.61;66.35
42335;BME280;27986;42.700;24.178;2022-12-20T02:03:07;95586.00;;;1.44;65.68
42335;BME280;27986;42.700;24.178;2022-12-20T02:05:39;95594.78;;;1.19;66.56
42335;BME280;27986;42.700;24.178;2022-12-20T02:08:06;95606.28;;;1.40;65.20
42335;BME280;27986;42.700;24.178;2022-12-20T02:13:13;95575.03;;;1.56;63.86
42335;BME280;27986;42.700;24.178;2022-12-20T02:15:54;95569.13;;;1.54;64.36
42335;BME280;27986;42.700;24.178;2022-12-20T02:18:48;95565.19;;;1.72;63.83
42335;BME280;27986;42.700;24.178;2022-12-20T02:21:38;95597.38;;;2.09;61.95
42335;BME280;27986;42.700;24.178;2022-12-20T02:32:56;95572.25;;;1.36;65.20
42335;BME280;27986;42.700;24.178;2022-12-20T02:35:27;95592.91;;;1.12;64.73
42335;BME280;27986;42.700;24.178;2022-12-20T02:37:55;95569.81;;;0.95;67.42
42335;BME280;27986;42.700;24.178;2022-12-20T02:40:41;95563.81;;;1.40;68.37
42335;BME280;27986;42.700;24.178;2022-12-20T02:43:08;95572.66;;;1.55;67.16
42335;BME280;27986;42.700;24.178;2022-12-20T02:45:55;95554.41;;;1.34;66.63
42335;BME280;27986;42.700;24.178;2022-12-20T02:48:24;95558.47;;;0.86;68.50
42335;BME280;27986;42.700;24.178;2022-12-20T02:50:52;95558.88;;;0.84;67.83
42335;BME280;27986;42.700;24.178;2022-12-20T02:53:19;95576.06;;;0.99;68.86
42335;BME280;27986;42.700;24.178;2022-12-20T02:56:08;95572.22;;;0.93;69.28
42335;BME280;27986;42.700;24.178;2022-12-20T02:58:42;95559.44;;;0.76;68.98
42335;BME280;27986;42.700;24.178;2022-12-20T03:01:15;95565.13;;;1.12;69.63
42335;BME280;27986;42.700;24.178;2022-12-20T03:03:42;95554.34;;;0.94;68.19
42335;BME280;27986;42.700;24.178;2022-12-20T03:06:08;95542.50;;;0.90;68.68
42335;BME280;27986;42.700;24.178;2022-12-20T03:08:33;95550.13;;;0.86;68.16
42335;BME280;27986;42.700;24.178;2022-12-20T03:10:58;95534.06;;;0.74;68.58
42335;BME280;27986;42.700;24.178;2022-12-20T03:13:25;95556.63;;;0.99;69.04
42335;BME280;27986;42.700;24.178;2022-12-20T03:15:50;95555.69;;;1.29;67.72
42335;BME280;27986;42.700;24.178;2022-12-20T03:18:16;95545.47;;;1.03;67.35
42335;BME280;27986;42.700;24.178;2022-12-20T03:20:42;95526.63;;;0.91;66.18
42335;BME280;27986;42.700;24.178;2022-12-20T03:23:07;95531.13;;;0.61;68.27
42335;BME280;27986;42.700;24.178;2022-12-20T03:25:33;95542.28;;;0.81;68.38
42335;BME280;27986;42.700;24.178;2022-12-20T03:27:59;95550.97;;;0.60;68.80
42335;BME280;27986;42.700;24.178;2022-12-20T03:30:24;95546.06;;;0.67;69.51
42335;BME280;27986;42.700;24.178;2022-12-20T03:32:50;95545.34;;;0.87;67.69
42335;BME280;27986;42.700;24.178;2022-12-20T03:35:15;95563.03;;;0.96;66.79
42335;BME280;27986;42.700;24.178;2022-12-20T03:37:41;95559.22;;;0.63;68.11
42335;BME280;27986;42.700;24.178;2022-12-20T03:40:08;95556.69;;;0.49;68.46
42335;BME280;27986;42.700;24.178;2022-12-20T03:42:34;95537.34;;;0.42;69.49
42335;BME280;27986;42.700;24.178;2022-12-20T03:45:00;95549.47;;;0.28;69.35
42335;BME280;27986;42.700;24.178;2022-12-20T03:47:25;95540.63;;;0.37;69.11
42335;BME280;27986;42.700;24.178;2022-12-20T03:49:51;95546.53;;;0.39;69.83
42335;BME280;27986;42.700;24.178;2022-12-20T03:52:16;95564.91;;;0.29;69.84
42335;BME280;27986;42.700;24.178;2022-12-20T03:54:42;95547.53;;;0.25;70.18
42335;BME280;27986;42.700;24.178;2022-12-20T03:57:08;95556.31;;;0.47;70.39
42335;BME280;27986;42.700;24.178;2022-12-20T03:59:33;95565.13;;;0.65;69.72
42335;BME280;27986;42.700;24.178;2022-12-20T04:02:00;95535.47;;;0.62;69.23
42335;BME280;27986;42.700;24.178;2022-12-20T04:04:26;95550.13;;;0.86;66.88
42335;BME280;27986;42.700;24.178;2022-12-20T04:06:51;95535.34;;;0.69;67.47
42335;BME280;27986;42.700;24.178;2022-12-20T04:09:17;95554.81;;;0.89;67.39
42335;BME280;27986;42.700;24.178;2022-12-20T04:11:42;95547.41;;;0.82;67.10
42335;BME280;27986;42.700;24.178;2022-12-20T04:14:08;95550.25;;;0.28;68.26
42335;BME280;27986;42.700;24.178;2022-12-20T04:16:33;95530.47;;;0.26;68.95
42335;BME280;27986;42.700;24.178;2022-12-20T04:18:59;95538.06;;;0.22;69.13
42335;BME280;27986;42.700;24.178;2022-12-20T04:21:27;95556.91;;;0.58;68.61
42335;BME280;27986;42.700;24.178;2022-12-20T04:23:53;95556.09;;;0.61;68.18
42335;BME280;27986;42.700;24.178;2022-12-20T04:26:19;95556.06;;;0.38;68.81
42335;BME280;27986;42.700;24.178;2022-12-20T04:28:45;95554.44;;;0.40;68.93
42335;BME280;27986;42.700;24.178;2022-12-20T04:31:11;95555.25;;;0.64;68.52
42335;BME280;27986;42.700;24.178;2022-12-20T04:33:36;95553.59;;;0.16;68.66
42335;BME280;27986;42.700;24.178;2022-12-20T04:36:02;95554.75;;;-0.08;70.44
42335;BME280;27986;42.700;24.178;2022-12-20T04:38:28;95546.03;;;-0.07;70.03
42335;BME280;27986;42.700;24.178;2022-12-20T04:40:54;95534.88;;;-0.03;69.70
42335;BME280;27986;42.700;24.178;2022-12-20T04:43:21;95546.19;;;0.10;69.50
42335;BME280;27986;42.700;24.178;2022-12-20T04:45:48;95551.22;;;0.18;68.18
42335;BME280;27986;42.700;24.178;2022-12-20T04:48:14;95541.31;;;0.17;67.71
42335;BME280;27986;42.700;24.178;2022-12-20T04:50:40;95545.28;;;0.16;67.87
42335;BME280;27986;42.700;24.178;2022-12-20T04:53:05;95572.56;;;0.21;67.10
42335;BME280;27986;42.700;24.178;2022-12-20T04:55:50;95560.66;;;-0.06;68.57
42335;BME280;27986;42.700;24.178;2022-12-20T04:58:15;95560.59;;;-0.03;68.07
42335;BME280;27986;42.700;24.178;2022-12-20T05:00:41;95554.16;;;-0.23;67.80
42335;BME280;27986;42.700;24.178;2022-12-20T05:03:06;95557.34;;;-0.24;68.44
42335;BME280;27986;42.700;24.178;2022-12-20T05:05:32;95544.97;;;-0.16;68.17
42335;BME280;27986;42.700;24.178;2022-12-20T05:07:58;95559.84;;;-0.34;67.67
42335;BME280;27986;42.700;24.178;2022-12-20T05:10:23;95554.66;;;-0.32;67.86
42335;BME280;27986;42.700;24.178;2022-12-20T05:12:48;95534.66;;;-0.46;67.83
42335;BME280;27986;42.700;24.178;2022-12-20T05:15:14;95538.75;;;-0.28;66.50
42335;BME280;27986;42.700;24.178;2022-12-20T05:17:39;95551.13;;;-0.36;66.44
42335;BME280;27986;42.700;24.178;2022-12-20T05:20:05;95571.94;;;-0.20;66.61
42335;BME280;27986;42.700;24.178;2022-12-20T05:22:31;95564.91;;;-0.29;66.16
42335;BME280;27986;42.700;24.178;2022-12-20T05:25:16;95546.25;;;-0.55;66.79
42335;BME280;27986;42.700;24.178;2022-12-20T05:28:00;95547.44;;;-0.56;67.25
42335;BME280;27986;42.700;24.178;2022-12-20T05:30:26;95524.16;;;-0.96;67.61
42335;BME280;27986;42.700;24.178;2022-12-20T05:32:51;95543.94;;;-0.98;68.39
42335;BME280;27986;42.700;24.178;2022-12-20T05:35:17;95567.00;;;-0.70;68.39
42335;BME280;27986;42.700;24.178;2022-12-20T05:37:43;95548.81;;;-0.71;67.65
42335;BME280;27986;42.700;24.178;2022-12-20T05:40:10;95565.72;;;-0.62;67.32
42335;BME280;27986;42.700;24.178;2022-12-20T05:42:36;95540.72;;;-0.93;67.96
42335;BME280;27986;42.700;24.178;2022-12-20T05:45:02;95560.22;;;-0.66;67.36
42335;BME280;27986;42.700;24.178;2022-12-20T05:47:28;95543.59;;;-0.66;67.74
42335;BME280;27986;42.700;24.178;2022-12-20T05:49:55;95532.25;;;-0.78;67.08
42335;BME280;27986;42.700;24.178;2022-12-20T05:52:20;95564.78;;;-0.52;67.14
42335;BME280;27986;42.700;24.178;2022-12-20T05:54:46;95535.28;;;-0.66;67.20
42335;BME280;27986;42.700;24.178;2022-12-20T05:57:11;95565.28;;;-0.61;66.80
42335;BME280;27986;42.700;24.178;2022-12-20T05:59:37;95551.28;;;-0.46;67.14
42335;BME280;27986;42.700;24.178;2022-12-20T06:02:03;95542.34;;;-0.61;66.81
42335;BME280;27986;42.700;24.178;2022-12-20T06:04:30;95518.19;;;-0.57;66.66
42335;BME280;27986;42.700;24.178;2022-12-20T06:06:55;95554.16;;;-0.23;66.41
42335;BME280;27986;42.700;24.178;2022-12-20T06:09:21;95543.69;;;-0.73;66.32
42335;BME280;27986;42.700;24.178;2022-12-20T06:11:46;95529.34;;;-1.02;66.91
42335;BME280;27986;42.700;24.178;2022-12-20T06:14:12;95547.31;;;-1.17;67.97
42335;BME280;27986;42.700;24.178;2022-12-20T06:16:37;95540.09;;;-1.49;68.81
42335;BME280;27986;42.700;24.178;2022-12-20T06:19:03;95535.81;;;-1.60;69.45
42335;BME280;27986;42.700;24.178;2022-12-20T06:21:28;95532.69;;;-1.59;70.49
42335;BME280;27986;42.700;24.178;2022-12-20T06:23:54;95538.00;;;-1.37;69.18
42335;BME280;27986;42.700;24.178;2022-12-20T06:26:19;95548.66;;;-1.32;68.65
42335;BME280;27986;42.700;24.178;2022-12-20T06:28:47;95557.56;;;-1.14;69.31
42335;BME280;27986;42.700;24.178;2022-12-20T06:31:17;95542.22;;;-1.22;69.22
42335;BME280;27986;42.700;24.178;2022-12-20T06:33:42;95548.06;;;-1.13;68.60
42335;BME280;27986;42.700;24.178;2022-12-20T06:36:09;95555.53;;;-1.10;68.29
42335;BME280;27986;42.700;24.178;2022-12-20T06:38:34;95548.59;;;-0.88;68.06
42335;BME280;27986;42.700;24.178;2022-12-20T06:41:00;95528.91;;;-0.97;67.40
42335;BME280;27986;42.700;24.178;2022-12-20T06:43:26;95545.69;;;-0.43;67.49
42335;BME280;27986;42.700;24.178;2022-12-20T06:45:51;95542.56;;;-0.14;66.16
42335;BME280;27986;42.700;24.178;2022-12-20T06:48:17;95556.06;;;0.11;65.94
42335;BME280;27986;42.700;24.178;2022-12-20T06:50:42;95548.22;;;0.06;66.57
42335;BME280;27986;42.700;24.178;2022-12-20T06:53:07;95537.06;;;0.36;66.01
42335;BME280;27986;42.700;24.178;2022-12-20T06:55:34;95516.16;;;0.55;64.82
42335;BME280;27986;42.700;24.178;2022-12-20T06:58:00;95538.09;;;0.46;63.84
42335;BME280;27986;42.700;24.178;2022-12-20T07:00:25;95514.34;;;-0.09;64.79
42335;BME280;27986;42.700;24.178;2022-12-20T07:02:51;95511.47;;;-0.29;66.18
42335;BME280;27986;42.700;24.178;2022-12-20T07:05:17;95537.38;;;0.15;66.82
42335;BME280;27986;42.700;24.178;2022-12-20T07:07:42;95524.50;;;0.28;66.29
42335;BME280;27986;42.700;24.178;2022-12-20T07:10:08;95538.47;;;0.71;64.61
42335;BME280;27986;42.700;24.178;2022-12-20T07:12:34;95509.63;;;0.42;64.39
42335;BME280;27986;42.700;24.178;2022-12-20T07:14:59;95499.38;;;0.39;62.02
42335;BME280;27986;42.700;24.178;2022-12-20T07:17:25;95506.59;;;0.79;75.47
42335;BME280;27986;42.700;24.178;2022-12-20T07:19:50;95506.66;;;1.39;71.92
42335;BME280;27986;42.700;24.178;2022-12-20T07:22:16;95507.03;;;1.61;74.02
42335;BME280;27986;42.700;24.178;2022-12-20T07:24:41;95504.56;;;2.51;75.18
42335;BME280;27986;42.700;24.178;2022-12-20T07:27:07;95509.44;;;3.54;76.34
42335;BME280;27986;42.700;24.178;2022-12-20T07:29:32;95507.19;;;3.91;66.25
42335;BME280;27986;42.700;24.178;2022-12-20T07:31:58;95492.66;;;3.42;57.20
42335;BME280;27986;42.700;24.178;2022-12-20T07:34:23;95498.34;;;3.38;65.62
42335;BME280;27986;42.700;24.178;2022-12-20T07:36:49;95468.91;;;3.91;71.06
42335;BME280;27986;42.700;24.178;2022-12-20T07:39:14;95492.25;;;4.36;52.65
42335;BME280;27986;42.700;24.178;2022-12-20T07:41:40;95490.03;;;4.31;50.55
42335;BME280;27986;42.700;24.178;2022-12-20T07:44:06;95498.28;;;4.34;51.94
42335;BME280;27986;42.700;24.178;2022-12-20T07:46:31;95489.88;;;3.83;50.82
42335;BME280;27986;42.700;24.178;2022-12-20T07:48:57;95502.72;;;3.39;51.60
42335;BME280;27986;42.700;24.178;2022-12-20T07:51:30;95499.59;;;2.92;52.40
42335;BME280;27986;42.700;24.178;2022-12-20T07:54:08;95488.56;;;2.56;53.94
42335;BME280;27986;42.700;24.178;2022-12-20T07:56:40;95507.94;;;1.15;58.43
42335;BME280;27986;42.700;24.178;2022-12-20T07:59:09;95505.03;;;0.32;62.50
42335;BME280;27986;42.700;24.178;2022-12-20T08:01:35;95499.00;;;0.37;63.50
42335;BME280;27986;42.700;24.178;2022-12-20T08:04:22;95512.81;;;0.40;63.22
42335;BME280;27986;42.700;24.178;2022-12-20T08:06:49;95513.22;;;-0.73;67.99
42335;BME280;27986;42.700;24.178;2022-12-20T08:09:16;95501.91;;;-0.55;70.52
42335;BME280;27986;42.700;24.178;2022-12-20T08:11:44;95511.59;;;0.18;69.84
42335;BME280;27986;42.700;24.178;2022-12-20T08:14:11;95499.59;;;-0.03;68.74
42335;BME280;27986;42.700;24.178;2022-12-20T08:16:37;95511.69;;;0.11;66.55
42335;BME280;27986;42.700;24.178;2022-12-20T08:19:03;95490.31;;;0.11;66.96
42335;BME280;27986;42.700;24.178;2022-12-20T08:21:30;95498.41;;;0.49;65.28
42335;BME280;27986;42.700;24.178;2022-12-20T08:23:56;95490.50;;;0.71;64.34
42335;BME280;27986;42.700;24.178;2022-12-20T08:26:22;95477.84;;;0.90;62.99
42335;BME280;27986;42.700;24.178;2022-12-20T08:28:48;95484.44;;;1.19;61.68
42335;BME280;27986;42.700;24.178;2022-12-20T08:31:16;95462.88;;;1.27;59.43
42335;BME280;27986;42.700;24.178;2022-12-20T08:33:47;95487.97;;;1.59;60.24
42335;BME280;27986;42.700;24.178;2022-12-20T08:36:12;95483.31;;;2.09;57.92
42335;BME280;27986;42.700;24.178;2022-12-20T08:38:39;95479.91;;;2.01;58.27
42335;BME280;27986;42.700;24.178;2022-12-20T08:41:11;95470.38;;;2.35;55.03
42335;BME280;27986;42.700;24.178;2022-12-20T08:43:37;95459.91;;;1.90;54.42
42335;BME280;27986;42.700;24.178;2022-12-20T08:46:03;95473.19;;;1.46;55.65
42335;BME280;27986;42.700;24.178;2022-12-20T08:48:29;95469.75;;;1.38;57.27
42335;BME280;27986;42.700;24.178;2022-12-20T08:50:57;95463.44;;;1.74;56.07
42335;BME280;27986;42.700;24.178;2022-12-20T08:53:24;95454.00;;;1.32;54.05
42335;BME280;27986;42.700;24.178;2022-12-20T08:55:50;95459.50;;;1.35;54.36
42335;BME280;27986;42.700;24.178;2022-12-20T08:58:15;95460.66;;;1.38;54.84
42335;BME280;27986;42.700;24.178;2022-12-20T09:00:41;95458.03;;;1.67;55.14
42335;BME280;27986;42.700;24.178;2022-12-20T09:03:06;95454.72;;;2.08;56.46
42335;BME280;27986;42.700;24.178;2022-12-20T09:05:34;95446.72;;;2.43;55.80
42335;BME280;27986;42.700;24.178;2022-12-20T09:07:59;95454.91;;;2.34;51.98
42335;BME280;27986;42.700;24.178;2022-12-20T09:10:24;95413.16;;;2.17;53.42
42335;BME280;27986;42.700;24.178;2022-12-20T09:12:51;95431.34;;;2.22;52.48
42335;BME280;27986;42.700;24.178;2022-12-20T09:15:16;95435.59;;;1.94;53.22
42335;BME280;27986;42.700;24.178;2022-12-20T09:17:42;95410.31;;;1.52;54.20
42335;BME280;27986;42.700;24.178;2022-12-20T09:20:08;95418.09;;;2.10;55.13
42335;BME280;27986;42.700;24.178;2022-12-20T09:22:34;95396.47;;;2.17;53.21
42335;BME280;27986;42.700;24.178;2022-12-20T09:24:59;95425.34;;;2.85;52.93
42335;BME280;27986;42.700;24.178;2022-12-20T09:27:24;95407.69;;;2.30;51.67
42335;BME280;27986;42.700;24.178;2022-12-20T09:29:50;95392.81;;;1.88;52.74
42335;BME280;27986;42.700;24.178;2022-12-20T09:32:15;95394.81;;;2.20;52.62
42335;BME280;27986;42.700;24.178;2022-12-20T09:34:41;95395.78;;;2.30;54.41
42335;BME280;27986;42.700;24.178;2022-12-20T09:37:06;95400.00;;;2.50;53.99
42335;BME280;27986;42.700;24.178;2022-12-20T09:39:32;95402.47;;;3.06;52.59
42335;BME280;27986;42.700;24.178;2022-12-20T09:41:57;95379.59;;;3.41;50.44
42335;BME280;27986;42.700;24.178;2022-12-20T09:44:32;95382.06;;;3.77;50.04
42335;BME280;27986;42.700;24.178;2022-12-20T09:47:17;95379.28;;;3.77;50.68
42335;BME280;27986;42.700;24.178;2022-12-20T09:49:46;95379.03;;;4.09;48.83
42335;BME280;27986;42.700;24.178;2022-12-20T09:55:38;95364.97;;;4.00;47.72
42335;BME280;27986;42.700;24.178;2022-12-20T10:00:48;95362.31;;;3.97;48.54
42335;BME280;27986;42.700;24.178;2022-12-20T10:03:28;95362.47;;;4.28;48.61
42335;BME280;27986;42.700;24.178;2022-12-20T10:06:00;95346.66;;;4.12;47.86
42335;BME280;27986;42.700;24.178;2022-12-20T10:08:49;95359.72;;;4.02;47.06
42335;BME280;27986;42.700;24.178;2022-12-20T10:16:50;95322.44;;;4.56;48.04
42335;BME280;27986;42.700;24.178;2022-12-20T10:22:29;95314.00;;;4.91;45.47
42335;BME280;27986;42.700;24.178;2022-12-20T10:27:31;95287.75;;;4.88;45.74
42335;BME280;27986;42.700;24.178;2022-12-20T10:30:09;95280.44;;;5.44;45.67
42335;BME280;27986;42.700;24.178;2022-12-20T10:32:35;95289.34;;;5.60;46.48
42335;BME280;27986;42.700;24.178;2022-12-20T10:37:35;95290.56;;;5.50;44.62
42335;BME280;27986;42.700;24.178;2022-12-20T10:40:00;95278.44;;;5.13;44.71
42335;BME280;27986;42.700;24.178;2022-12-20T10:42:37;95280.66;;;4.96;45.55
42335;BME280;27986;42.700;24.178;2022-12-20T10:45:26;95274.66;;;5.38;46.51
42335;BME280;27986;42.700;24.178;2022-12-20T10:47:57;95274.78;;;5.34;45.79
42335;BME280;27986;42.700;24.178;2022-12-20T10:50:23;95263.88;;;5.58;46.79
42335;BME280;27986;42.700;24.178;2022-12-20T10:53:16;95274.03;;;5.74;44.03
42335;BME280;27986;42.700;24.178;2022-12-20T10:55:43;95249.72;;;4.91;46.23
42335;BME280;27986;42.700;24.178;2022-12-20T10:58:14;95271.47;;;4.96;46.32
42335;BME280;27986;42.700;24.178;2022-12-20T11:00:40;95251.38;;;5.41;44.81
42335;BME280;27986;42.700;24.178;2022-12-20T11:03:21;95242.75;;;5.26;43.17
42335;BME280;27986;42.700;24.178;2022-12-20T11:06:14;95253.13;;;5.57;42.90
42335;BME280;27986;42.700;24.178;2022-12-20T11:08:39;95231.81;;;5.90;42.42
42335;BME280;27986;42.700;24.178;2022-12-20T11:11:18;95249.16;;;5.76;41.66
42335;BME280;27986;42.700;24.178;2022-12-20T11:13:45;95223.13;;;5.98;43.62
42335;BME280;27986;42.700;24.178;2022-12-20T11:16:32;95207.41;;;5.51;43.38
42335;BME280;27986;42.700;24.178;2022-12-20T11:22:02;95215.19;;;6.60;42.14
42335;BME280;27986;42.700;24.178;2022-12-20T11:27:36;95196.84;;;7.11;41.15
42335;BME280;27986;42.700;24.178;2022-12-20T11:30:20;95188.53;;;6.83;39.59
42335;BME280;27986;42.700;24.178;2022-12-20T11:33:13;95199.78;;;6.46;40.51
42335;BME280;27986;42.700;24.178;2022-12-20T11:35:56;95191.94;;;6.78;39.89
42335;BME280;27986;42.700;24.178;2022-12-20T11:46:43;95171.38;;;6.90;40.15
42335;BME280;27986;42.700;24.178;2022-12-20T11:52:13;95158.38;;;7.11;40.36
42335;BME280;27986;42.700;24.178;2022-12-20T11:54:52;95158.84;;;7.10;40.06
42335;BME280;27986;42.700;24.178;2022-12-20T11:57:31;95165.47;;;6.79;40.83
42335;BME280;27986;42.700;24.178;2022-12-20T12:00:00;95126.34;;;6.94;40.92
42335;BME280;27986;42.700;24.178;2022-12-20T12:02:32;95131.47;;;6.95;40.42
42335;BME280;27986;42.700;24.178;2022-12-20T12:05:04;95137.09;;;7.28;40.00
42335;BME280;27986;42.700;24.178;2022-12-20T12:07:34;95145.69;;;7.25;39.94
42335;BME280;27986;42.700;24.178;2022-12-20T12:10:11;95138.47;;;7.00;39.92
42335;BME280;27986;42.700;24.178;2022-12-20T12:15:54;95134.75;;;6.94;39.92
42335;BME280;27986;42.700;24.178;2022-12-20T12:18:30;95119.09;;;7.11;39.30
42335;BME280;27986;42.700;24.178;2022-12-20T12:26:36;95121.53;;;7.27;38.72
42335;BME280;27986;42.700;24.178;2022-12-20T12:45:56;95112.84;;;7.49;39.35
42335;BME280;27986;42.700;24.178;2022-12-20T12:48:35;95113.97;;;7.90;39.83
42335;BME280;27986;42.700;24.178;2022-12-20T12:51:03;95105.63;;;7.96;39.02
42335;BME280;27986;42.700;24.178;2022-12-20T12:53:35;95087.81;;;7.03;39.23
42335;BME280;27986;42.700;24.178;2022-12-20T13:09:34;95105.91;;;7.83;40.60
42335;BME280;27986;42.700;24.178;2022-12-20T13:15:02;95092.97;;;7.29;40.20
42335;BME280;27986;42.700;24.178;2022-12-20T13:20:23;95096.28;;;7.27;42.83
42335;BME280;27986;42.700;24.178;2022-12-20T13:25:43;95083.63;;;7.32;40.95
42335;BME280;27986;42.700;24.178;2022-12-20T13:38:49;95093.16;;;7.25;44.81
42335;BME280;27986;42.700;24.178;2022-12-20T13:43:48;95091.19;;;7.88;44.66
42335;BME280;27986;42.700;24.178;2022-12-20T13:46:23;95079.88;;;8.51;43.48
42335;BME280;27986;42.700;24.178;2022-12-20T13:48:51;95090.06;;;8.78;42.34
42335;BME280;27986;42.700;24.178;2022-12-20T13:51:23;95071.34;;;8.60;42.22
42335;BME280;27986;42.700;24.178;2022-12-20T13:53:57;95097.41;;;7.45;44.48
42335;BME280;27986;42.700;24.178;2022-12-20T13:58:57;95093.22;;;8.27;43.29
42335;BME280;27986;42.700;24.178;2022-12-20T14:01:24;95083.34;;;8.46;41.66
42335;BME280;27986;42.700;24.178;2022-12-20T14:03:51;95090.84;;;9.28;41.23
42335;BME280;27986;42.700;24.178;2022-12-20T14:06:19;95088.06;;;8.99;41.66
42335;BME280;27986;42.700;24.178;2022-12-20T14:08:48;95084.81;;;8.71;42.13
42335;BME280;27986;42.700;24.178;2022-12-20T14:11:25;95095.47;;;8.52;41.16
42335;BME280;27986;42.700;24.178;2022-12-20T14:13:53;95065.59;;;7.48;39.13
42335;BME280;27986;42.700;24.178;2022-12-20T14:16:19;95097.53;;;7.26;43.61
42335;BME280;27986;42.700;24.178;2022-12-20T14:19:04;95093.13;;;7.01;44.53
42335;BME280;27986;42.700;24.178;2022-12-20T14:21:30;95095.88;;;6.17;43.28
42335;BME280;27986;42.700;24.178;2022-12-20T14:23:59;95094.94;;;6.02;44.96
42335;BME280;27986;42.700;24.178;2022-12-20T14:26:32;95112.19;;;5.73;43.90
42335;BME280;27986;42.700;24.178;2022-12-20T14:29:00;95107.56;;;5.11;43.23
42335;BME280;27986;42.700;24.178;2022-12-20T14:36:31;95069.16;;;5.02;51.61
42335;BME280;27986;42.700;24.178;2022-12-20T14:38:58;95086.69;;;4.53;53.19
42335;BME280;27986;42.700;24.178;2022-12-20T14:41:42;95089.78;;;4.24;55.37
42335;BME280;27986;42.700;24.178;2022-12-20T14:44:21;95105.19;;;3.85;57.42
42335;BME280;27986;42.700;24.178;2022-12-20T14:46:56;95105.97;;;3.51;59.17
42335;BME280;27986;42.700;24.178;2022-12-20T14:49:23;95106.69;;;3.43;60.20
42335;BME280;27986;42.700;24.178;2022-12-20T14:51:50;95086.69;;;3.09;61.02
42335;BME280;27986;42.700;24.178;2022-12-20T14:54:27;95099.78;;;2.74;63.83
42335;BME280;27986;42.700;24.178;2022-12-20T14:56:53;95106.56;;;2.73;63.97
42335;BME280;27986;42.700;24.178;2022-12-20T14:59:26;95103.47;;;2.71;64.48
42335;BME280;27986;42.700;24.178;2022-12-20T15:01:52;95108.03;;;2.65;63.95